Terminal Aerodrome Forecast
Issued by NWS

Home | Current Version | Previous Version | Text Only | Print | Product List | Glossary On
Versions: 1 2 3 4 5 6 7 8 9 10 11 12 13 14 15 16 17 18 19 20 21 22 23 24 25 26
000
FTUS43 KDDC 032101 AAA
TAFGCK
TAF AMD
KGCK 032101Z 0321/0418 01017KT P6SM BKN016 OVC023
     FM032300 01013KT P6SM BKN035
     FM040600 03018G25KT 6SM -SN OVC025
     FM041100 03019G26KT 2SM -SN OVC015=

USA.gov is the U.S. government's official web portal to all federal, state and local government web resources and services.